sensor_id;sensor_type;location;lat;lon;timestamp;P1;durP1;ratioP1;P2;durP2;ratioP2
48853;SDS011;34673;52.808;17.856;2023-09-19T00:00:44;19.17;;;14.60;;
48853;SDS011;34673;52.808;17.856;2023-09-19T00:03:14;16.40;;;13.77;;
48853;SDS011;34673;52.808;17.856;2023-09-19T00:05:42;21.40;;;14.10;;
48853;SDS011;34673;52.808;17.856;2023-09-19T00:08:12;17.40;;;13.40;;
48853;SDS011;34673;52.808;17.856;2023-09-19T00:10:40;18.00;;;12.73;;
48853;SDS011;34673;52.808;17.856;2023-09-19T00:13:09;15.45;;;11.27;;
48853;SDS011;34673;52.808;17.856;2023-09-19T00:15:42;12.93;;;10.60;;
48853;SDS011;34673;52.808;17.856;2023-09-19T00:18:18;16.17;;;10.70;;
48853;SDS011;34673;52.808;17.856;2023-09-19T00:20:49;15.02;;;10.23;;
48853;SDS011;34673;52.808;17.856;2023-09-19T00:23:19;13.38;;;9.80;;
48853;SDS011;34673;52.808;17.856;2023-09-19T00:25:47;12.82;;;8.35;;
48853;SDS011;34673;52.808;17.856;2023-09-19T00:28:15;13.68;;;8.60;;
48853;SDS011;34673;52.808;17.856;2023-09-19T00:30:44;12.10;;;7.95;;
48853;SDS011;34673;52.808;17.856;2023-09-19T00:33:12;11.57;;;7.82;;
48853;SDS011;34673;52.808;17.856;2023-09-19T00:35:49;14.13;;;7.90;;
48853;SDS011;34673;52.808;17.856;2023-09-19T00:38:17;12.85;;;8.07;;
48853;SDS011;34673;52.808;17.856;2023-09-19T00:40:48;12.65;;;7.47;;
48853;SDS011;34673;52.808;17.856;2023-09-19T00:43:20;11.70;;;6.20;;
48853;SDS011;34673;52.808;17.856;2023-09-19T00:45:49;8.35;;;6.35;;
48853;SDS011;34673;52.808;17.856;2023-09-19T00:48:22;9.40;;;6.28;;
48853;SDS011;34673;52.808;17.856;2023-09-19T00:50:51;20.30;;;7.63;;
48853;SDS011;34673;52.808;17.856;2023-09-19T00:53:20;11.68;;;6.90;;
48853;SDS011;34673;52.808;17.856;2023-09-19T00:55:50;12.43;;;7.00;;
48853;SDS011;34673;52.808;17.856;2023-09-19T00:58:18;7.50;;;5.57;;
48853;SDS011;34673;52.808;17.856;2023-09-19T01:00:50;7.78;;;5.53;;
48853;SDS011;34673;52.808;17.856;2023-09-19T01:03:20;6.82;;;5.00;;
48853;SDS011;34673;52.808;17.856;2023-09-19T01:05:47;9.32;;;5.45;;
48853;SDS011;34673;52.808;17.856;2023-09-19T01:08:14;9.38;;;4.90;;
48853;SDS011;34673;52.808;17.856;2023-09-19T01:10:51;11.63;;;4.82;;
48853;SDS011;34673;52.808;17.856;2023-09-19T01:13:29;10.75;;;4.70;;
48853;SDS011;34673;52.808;17.856;2023-09-19T01:16:19;10.98;;;4.82;;
48853;SDS011;34673;52.808;17.856;2023-09-19T01:24:55;8.65;;;4.70;;
48853;SDS011;34673;52.808;17.856;2023-09-19T01:27:53;8.07;;;4.40;;
48853;SDS011;34673;52.808;17.856;2023-09-19T01:30:44;6.95;;;4.28;;
48853;SDS011;34673;52.808;17.856;2023-09-19T01:33:12;6.68;;;4.60;;
48853;SDS011;34673;52.808;17.856;2023-09-19T01:35:41;6.28;;;4.32;;
48853;SDS011;34673;52.808;17.856;2023-09-19T01:38:09;6.70;;;4.03;;
48853;SDS011;34673;52.808;17.856;2023-09-19T01:40:40;6.72;;;4.28;;
48853;SDS011;34673;52.808;17.856;2023-09-19T01:43:15;7.63;;;4.72;;
48853;SDS011;34673;52.808;17.856;2023-09-19T01:54:09;8.60;;;4.25;;
48853;SDS011;34673;52.808;17.856;2023-09-19T01:59:10;9.13;;;4.40;;
48853;SDS011;34673;52.808;17.856;2023-09-19T02:01:40;10.23;;;4.63;;
48853;SDS011;34673;52.808;17.856;2023-09-19T02:04:11;6.05;;;4.22;;
48853;SDS011;34673;52.808;17.856;2023-09-19T02:06:39;8.48;;;4.68;;
48853;SDS011;34673;52.808;17.856;2023-09-19T02:09:10;8.70;;;4.75;;
48853;SDS011;34673;52.808;17.856;2023-09-19T02:11:37;6.82;;;4.38;;
48853;SDS011;34673;52.808;17.856;2023-09-19T02:14:05;8.88;;;5.03;;
48853;SDS011;34673;52.808;17.856;2023-09-19T02:16:35;8.02;;;4.50;;
48853;SDS011;34673;52.808;17.856;2023-09-19T02:19:02;8.20;;;4.18;;
48853;SDS011;34673;52.808;17.856;2023-09-19T02:24:00;8.20;;;4.10;;
48853;SDS011;34673;52.808;17.856;2023-09-19T02:26:27;6.82;;;3.70;;
48853;SDS011;34673;52.808;17.856;2023-09-19T02:28:54;6.97;;;4.20;;
48853;SDS011;34673;52.808;17.856;2023-09-19T02:31:22;7.30;;;4.20;;
48853;SDS011;34673;52.808;17.856;2023-09-19T02:33:49;7.75;;;3.92;;
48853;SDS011;34673;52.808;17.856;2023-09-19T02:36:16;7.68;;;4.60;;
48853;SDS011;34673;52.808;17.856;2023-09-19T02:38:44;8.80;;;3.97;;
48853;SDS011;34673;52.808;17.856;2023-09-19T02:41:11;7.43;;;3.70;;
48853;SDS011;34673;52.808;17.856;2023-09-19T02:43:38;8.65;;;3.83;;
48853;SDS011;34673;52.808;17.856;2023-09-19T02:46:06;13.70;;;4.55;;
48853;SDS011;34673;52.808;17.856;2023-09-19T02:48:33;10.13;;;4.00;;
48853;SDS011;34673;52.808;17.856;2023-09-19T02:51:02;8.88;;;4.47;;
48853;SDS011;34673;52.808;17.856;2023-09-19T02:53:30;9.25;;;3.67;;
48853;SDS011;34673;52.808;17.856;2023-09-19T02:55:58;6.38;;;4.18;;
48853;SDS011;34673;52.808;17.856;2023-09-19T02:58:25;8.02;;;4.45;;
48853;SDS011;34673;52.808;17.856;2023-09-19T03:00:54;8.32;;;3.72;;
48853;SDS011;34673;52.808;17.856;2023-09-19T03:03:23;7.05;;;3.97;;
48853;SDS011;34673;52.808;17.856;2023-09-19T03:05:50;9.75;;;4.40;;
48853;SDS011;34673;52.808;17.856;2023-09-19T03:08:21;7.40;;;4.15;;
48853;SDS011;34673;52.808;17.856;2023-09-19T03:10:48;8.55;;;3.25;;
48853;SDS011;34673;52.808;17.856;2023-09-19T03:13:16;9.43;;;4.07;;
48853;SDS011;34673;52.808;17.856;2023-09-19T03:15:43;8.07;;;3.55;;
48853;SDS011;34673;52.808;17.856;2023-09-19T03:18:16;10.10;;;3.88;;
48853;SDS011;34673;52.808;17.856;2023-09-19T03:20:51;8.15;;;3.65;;
48853;SDS011;34673;52.808;17.856;2023-09-19T03:23:22;10.43;;;4.40;;
48853;SDS011;34673;52.808;17.856;2023-09-19T03:25:50;7.85;;;3.80;;
48853;SDS011;34673;52.808;17.856;2023-09-19T03:28:18;8.25;;;4.00;;
48853;SDS011;34673;52.808;17.856;2023-09-19T03:31:03;6.25;;;3.80;;
48853;SDS011;34673;52.808;17.856;2023-09-19T03:33:34;8.23;;;3.60;;
48853;SDS011;34673;52.808;17.856;2023-09-19T03:36:02;7.82;;;3.80;;
48853;SDS011;34673;52.808;17.856;2023-09-19T03:38:33;9.75;;;4.03;;
48853;SDS011;34673;52.808;17.856;2023-09-19T03:41:01;9.00;;;3.65;;
48853;SDS011;34673;52.808;17.856;2023-09-19T03:43:32;6.97;;;3.42;;
48853;SDS011;34673;52.808;17.856;2023-09-19T03:46:03;8.13;;;3.72;;
48853;SDS011;34673;52.808;17.856;2023-09-19T03:48:36;9.35;;;3.63;;
48853;SDS011;34673;52.808;17.856;2023-09-19T03:51:04;7.72;;;3.97;;
48853;SDS011;34673;52.808;17.856;2023-09-19T03:53:31;6.05;;;3.72;;
48853;SDS011;34673;52.808;17.856;2023-09-19T03:55:58;7.32;;;3.33;;
48853;SDS011;34673;52.808;17.856;2023-09-19T03:58:29;7.13;;;3.15;;
48853;SDS011;34673;52.808;17.856;2023-09-19T04:00:57;5.55;;;3.15;;
48853;SDS011;34673;52.808;17.856;2023-09-19T04:03:27;6.60;;;3.22;;
48853;SDS011;34673;52.808;17.856;2023-09-19T04:06:02;7.25;;;3.80;;
48853;SDS011;34673;52.808;17.856;2023-09-19T04:08:29;7.05;;;3.78;;
48853;SDS011;34673;52.808;17.856;2023-09-19T04:10:57;7.35;;;3.25;;
48853;SDS011;34673;52.808;17.856;2023-09-19T04:13:24;7.03;;;3.33;;
48853;SDS011;34673;52.808;17.856;2023-09-19T04:15:52;8.45;;;3.25;;
48853;SDS011;34673;52.808;17.856;2023-09-19T04:18:20;7.00;;;3.50;;
48853;SDS011;34673;52.808;17.856;2023-09-19T04:20:48;9.60;;;3.85;;
48853;SDS011;34673;52.808;17.856;2023-09-19T04:23:18;5.43;;;2.92;;
48853;SDS011;34673;52.808;17.856;2023-09-19T04:25:49;8.40;;;3.33;;
48853;SDS011;34673;52.808;17.856;2023-09-19T04:28:17;5.00;;;3.15;;
48853;SDS011;34673;52.808;17.856;2023-09-19T04:30:44;7.65;;;3.38;;
48853;SDS011;34673;52.808;17.856;2023-09-19T04:33:11;6.05;;;3.20;;
48853;SDS011;34673;52.808;17.856;2023-09-19T04:35:41;6.07;;;3.53;;
48853;SDS011;34673;52.808;17.856;2023-09-19T04:38:09;7.53;;;2.90;;
48853;SDS011;34673;52.808;17.856;2023-09-19T04:40:36;8.32;;;3.53;;
48853;SDS011;34673;52.808;17.856;2023-09-19T04:45:34;6.93;;;3.17;;
48853;SDS011;34673;52.808;17.856;2023-09-19T04:48:01;7.25;;;3.08;;
48853;SDS011;34673;52.808;17.856;2023-09-19T04:50:29;7.50;;;3.28;;
48853;SDS011;34673;52.808;17.856;2023-09-19T04:52:56;8.35;;;3.42;;
48853;SDS011;34673;52.808;17.856;2023-09-19T04:55:24;8.13;;;3.42;;
48853;SDS011;34673;52.808;17.856;2023-09-19T04:57:51;5.57;;;3.17;;
48853;SDS011;34673;52.808;17.856;2023-09-19T05:00:22;5.95;;;2.78;;
48853;SDS011;34673;52.808;17.856;2023-09-19T05:02:56;5.63;;;3.53;;
48853;SDS011;34673;52.808;17.856;2023-09-19T05:05:24;7.13;;;3.47;;
48853;SDS011;34673;52.808;17.856;2023-09-19T05:07:52;6.82;;;3.80;;
48853;SDS011;34673;52.808;17.856;2023-09-19T05:10:23;5.53;;;3.58;;
48853;SDS011;34673;52.808;17.856;2023-09-19T05:12:52;6.20;;;3.95;;
48853;SDS011;34673;52.808;17.856;2023-09-19T05:15:20;7.60;;;4.20;;
48853;SDS011;34673;52.808;17.856;2023-09-19T05:17:51;6.95;;;3.83;;
48853;SDS011;34673;52.808;17.856;2023-09-19T05:20:24;7.88;;;3.97;;
48853;SDS011;34673;52.808;17.856;2023-09-19T05:23:13;5.95;;;3.92;;
48853;SDS011;34673;52.808;17.856;2023-09-19T05:25:40;6.28;;;4.03;;
48853;SDS011;34673;52.808;17.856;2023-09-19T05:28:08;11.90;;;4.43;;
48853;SDS011;34673;52.808;17.856;2023-09-19T05:30:38;6.40;;;4.45;;
48853;SDS011;34673;52.808;17.856;2023-09-19T05:33:06;6.53;;;4.18;;
48853;SDS011;34673;52.808;17.856;2023-09-19T05:35:35;6.22;;;3.90;;
48853;SDS011;34673;52.808;17.856;2023-09-19T05:38:06;6.75;;;4.75;;
48853;SDS011;34673;52.808;17.856;2023-09-19T05:40:35;8.65;;;5.10;;
48853;SDS011;34673;52.808;17.856;2023-09-19T05:43:03;6.97;;;5.25;;
48853;SDS011;34673;52.808;17.856;2023-09-19T05:45:32;8.13;;;4.47;;
48853;SDS011;34673;52.808;17.856;2023-09-19T05:48:21;7.53;;;4.43;;
48853;SDS011;34673;52.808;17.856;2023-09-19T05:50:47;9.25;;;5.93;;
48853;SDS011;34673;52.808;17.856;2023-09-19T05:53:17;7.72;;;4.50;;
48853;SDS011;34673;52.808;17.856;2023-09-19T05:55:45;6.55;;;4.05;;
48853;SDS011;34673;52.808;17.856;2023-09-19T05:58:12;6.80;;;3.95;;
48853;SDS011;34673;52.808;17.856;2023-09-19T06:00:44;6.70;;;4.00;;
48853;SDS011;34673;52.808;17.856;2023-09-19T06:03:14;8.13;;;4.53;;
48853;SDS011;34673;52.808;17.856;2023-09-19T06:05:41;7.32;;;4.47;;
48853;SDS011;34673;52.808;17.856;2023-09-19T06:08:08;7.53;;;4.38;;
48853;SDS011;34673;52.808;17.856;2023-09-19T06:10:36;5.65;;;3.80;;
48853;SDS011;34673;52.808;17.856;2023-09-19T06:13:03;7.22;;;4.15;;
48853;SDS011;34673;52.808;17.856;2023-09-19T06:15:31;6.13;;;3.70;;
48853;SDS011;34673;52.808;17.856;2023-09-19T06:18:00;6.65;;;3.72;;
48853;SDS011;34673;52.808;17.856;2023-09-19T06:20:29;6.20;;;3.60;;
48853;SDS011;34673;52.808;17.856;2023-09-19T06:22:56;8.82;;;3.50;;
48853;SDS011;34673;52.808;17.856;2023-09-19T06:25:23;6.50;;;3.50;;
48853;SDS011;34673;52.808;17.856;2023-09-19T06:27:52;8.13;;;3.13;;
48853;SDS011;34673;52.808;17.856;2023-09-19T06:30:21;6.95;;;3.53;;
48853;SDS011;34673;52.808;17.856;2023-09-19T06:32:57;8.82;;;3.97;;
48853;SDS011;34673;52.808;17.856;2023-09-19T06:35:26;7.47;;;3.88;;
48853;SDS011;34673;52.808;17.856;2023-09-19T06:37:56;5.72;;;3.15;;
48853;SDS011;34673;52.808;17.856;2023-09-19T06:40:25;5.95;;;3.80;;
48853;SDS011;34673;52.808;17.856;2023-09-19T06:42:55;6.30;;;3.92;;
48853;SDS011;34673;52.808;17.856;2023-09-19T06:45:23;7.63;;;3.67;;
48853;SDS011;34673;52.808;17.856;2023-09-19T06:47:54;7.90;;;3.83;;
48853;SDS011;34673;52.808;17.856;2023-09-19T06:50:25;7.07;;;3.83;;
48853;SDS011;34673;52.808;17.856;2023-09-19T06:52:54;9.30;;;3.88;;
48853;SDS011;34673;52.808;17.856;2023-09-19T06:55:25;7.05;;;4.05;;
48853;SDS011;34673;52.808;17.856;2023-09-19T06:57:55;5.68;;;3.55;;
48853;SDS011;34673;52.808;17.856;2023-09-19T07:00:23;8.18;;;4.20;;
48853;SDS011;34673;52.808;17.856;2023-09-19T07:02:58;7.18;;;4.10;;
48853;SDS011;34673;52.808;17.856;2023-09-19T07:05:28;6.50;;;3.88;;
48853;SDS011;34673;52.808;17.856;2023-09-19T07:07:55;6.97;;;4.10;;
48853;SDS011;34673;52.808;17.856;2023-09-19T07:10:23;6.55;;;4.40;;
48853;SDS011;34673;52.808;17.856;2023-09-19T07:13:00;8.90;;;4.57;;
48853;SDS011;34673;52.808;17.856;2023-09-19T07:15:29;7.53;;;3.88;;
48853;SDS011;34673;52.808;17.856;2023-09-19T07:18:02;7.10;;;3.47;;
48853;SDS011;34673;52.808;17.856;2023-09-19T07:20:30;6.63;;;4.10;;
48853;SDS011;34673;52.808;17.856;2023-09-19T07:22:59;8.25;;;4.32;;
48853;SDS011;34673;52.808;17.856;2023-09-19T07:25:30;6.93;;;4.05;;
48853;SDS011;34673;52.808;17.856;2023-09-19T07:27:57;6.10;;;3.83;;
48853;SDS011;34673;52.808;17.856;2023-09-19T07:30:27;8.00;;;3.78;;
48853;SDS011;34673;52.808;17.856;2023-09-19T07:32:56;7.25;;;3.25;;
48853;SDS011;34673;52.808;17.856;2023-09-19T07:35:23;7.50;;;4.25;;
48853;SDS011;34673;52.808;17.856;2023-09-19T07:37:51;6.63;;;4.15;;
48853;SDS011;34673;52.808;17.856;2023-09-19T07:40:19;8.48;;;4.38;;
48853;SDS011;34673;52.808;17.856;2023-09-19T07:42:50;8.23;;;4.13;;
48853;SDS011;34673;52.808;17.856;2023-09-19T07:45:17;8.35;;;3.88;;
48853;SDS011;34673;52.808;17.856;2023-09-19T07:50:14;7.18;;;3.55;;
48853;SDS011;34673;52.808;17.856;2023-09-19T07:52:43;4.90;;;3.58;;
48853;SDS011;34673;52.808;17.856;2023-09-19T07:55:11;7.07;;;4.13;;
48853;SDS011;34673;52.808;17.856;2023-09-19T07:57:43;8.52;;;4.53;;
48853;SDS011;34673;52.808;17.856;2023-09-19T08:00:10;6.75;;;3.90;;
48853;SDS011;34673;52.808;17.856;2023-09-19T08:02:39;8.70;;;3.95;;
48853;SDS011;34673;52.808;17.856;2023-09-19T08:05:10;5.35;;;3.80;;
48853;SDS011;34673;52.808;17.856;2023-09-19T08:07:39;6.05;;;3.40;;
48853;SDS011;34673;52.808;17.856;2023-09-19T08:10:07;5.13;;;3.55;;
48853;SDS011;34673;52.808;17.856;2023-09-19T08:12:40;8.63;;;3.40;;
48853;SDS011;34673;52.808;17.856;2023-09-19T08:15:17;6.78;;;2.90;;
48853;SDS011;34673;52.808;17.856;2023-09-19T08:17:47;4.75;;;3.13;;
48853;SDS011;34673;52.808;17.856;2023-09-19T08:20:15;7.80;;;3.53;;
48853;SDS011;34673;52.808;17.856;2023-09-19T08:22:49;6.93;;;3.53;;
48853;SDS011;34673;52.808;17.856;2023-09-19T08:25:24;4.93;;;2.95;;
48853;SDS011;34673;52.808;17.856;2023-09-19T08:27:55;4.57;;;2.80;;
48853;SDS011;34673;52.808;17.856;2023-09-19T08:30:24;7.17;;;3.30;;
48853;SDS011;34673;52.808;17.856;2023-09-19T08:32:57;7.65;;;3.10;;
48853;SDS011;34673;52.808;17.856;2023-09-19T08:35:28;6.22;;;2.92;;
48853;SDS011;34673;52.808;17.856;2023-09-19T08:37:56;6.35;;;3.17;;
48853;SDS011;34673;52.808;17.856;2023-09-19T08:40:23;5.03;;;2.90;;
48853;SDS011;34673;52.808;17.856;2023-09-19T08:42:52;6.72;;;3.42;;
48853;SDS011;34673;52.808;17.856;2023-09-19T08:45:22;3.78;;;3.00;;
48853;SDS011;34673;52.808;17.856;2023-09-19T08:50:56;5.47;;;2.60;;
48853;SDS011;34673;52.808;17.856;2023-09-19T08:53:43;5.22;;;2.60;;
48853;SDS011;34673;52.808;17.856;2023-09-19T08:56:18;4.05;;;2.63;;
48853;SDS011;34673;52.808;17.856;2023-09-19T08:58:50;6.93;;;2.30;;
48853;SDS011;34673;52.808;17.856;2023-09-19T09:01:21;4.63;;;2.60;;
48853;SDS011;34673;52.808;17.856;2023-09-19T09:03:55;5.57;;;2.30;;
48853;SDS011;34673;52.808;17.856;2023-09-19T09:06:24;4.20;;;2.20;;
48853;SDS011;34673;52.808;17.856;2023-09-19T09:08:52;4.18;;;2.00;;
48853;SDS011;34673;52.808;17.856;2023-09-19T09:11:20;4.88;;;2.42;;
48853;SDS011;34673;52.808;17.856;2023-09-19T09:13:48;5.95;;;2.25;;
48853;SDS011;34673;52.808;17.856;2023-09-19T09:16:15;4.75;;;2.22;;
48853;SDS011;34673;52.808;17.856;2023-09-19T09:21:29;4.63;;;2.20;;
48853;SDS011;34673;52.808;17.856;2023-09-19T09:23:56;4.88;;;2.22;;
48853;SDS011;34673;52.808;17.856;2023-09-19T09:29:06;6.97;;;2.22;;
48853;SDS011;34673;52.808;17.856;2023-09-19T09:31:33;4.07;;;1.95;;
48853;SDS011;34673;52.808;17.856;2023-09-19T09:34:00;5.53;;;1.90;;
48853;SDS011;34673;52.808;17.856;2023-09-19T09:36:35;4.40;;;1.90;;
48853;SDS011;34673;52.808;17.856;2023-09-19T09:39:03;4.00;;;2.10;;
48853;SDS011;34673;52.808;17.856;2023-09-19T09:41:43;5.40;;;2.00;;
48853;SDS011;34673;52.808;17.856;2023-09-19T09:44:14;5.72;;;2.00;;
48853;SDS011;34673;52.808;17.856;2023-09-19T09:46:45;4.07;;;1.75;;
48853;SDS011;34673;52.808;17.856;2023-09-19T09:49:26;4.00;;;1.80;;
48853;SDS011;34673;52.808;17.856;2023-09-19T09:54:37;3.33;;;1.40;;
48853;SDS011;34673;52.808;17.856;2023-09-19T09:57:06;5.95;;;2.00;;
48853;SDS011;34673;52.808;17.856;2023-09-19T10:02:26;3.97;;;1.60;;
48853;SDS011;34673;52.808;17.856;2023-09-19T10:05:11;4.63;;;1.50;;
48853;SDS011;34673;52.808;17.856;2023-09-19T10:08:10;3.72;;;1.80;;
48853;SDS011;34673;52.808;17.856;2023-09-19T10:10:45;5.00;;;1.75;;
48853;SDS011;34673;52.808;17.856;2023-09-19T10:13:30;4.70;;;1.70;;
48853;SDS011;34673;52.808;17.856;2023-09-19T10:16:00;6.75;;;1.77;;
48853;SDS011;34673;52.808;17.856;2023-09-19T10:18:34;5.30;;;1.73;;
48853;SDS011;34673;52.808;17.856;2023-09-19T10:21:06;7.00;;;1.80;;
48853;SDS011;34673;52.808;17.856;2023-09-19T10:26:05;7.65;;;1.70;;
48853;SDS011;34673;52.808;17.856;2023-09-19T10:28:33;5.22;;;1.80;;
48853;SDS011;34673;52.808;17.856;2023-09-19T10:31:03;4.70;;;1.67;;
48853;SDS011;34673;52.808;17.856;2023-09-19T10:33:34;3.13;;;1.70;;
48853;SDS011;34673;52.808;17.856;2023-09-19T10:36:04;3.95;;;1.50;;
48853;SDS011;34673;52.808;17.856;2023-09-19T10:38:32;4.68;;;1.50;;
48853;SDS011;34673;52.808;17.856;2023-09-19T10:41:02;4.72;;;1.70;;
48853;SDS011;34673;52.808;17.856;2023-09-19T10:43:33;4.97;;;1.60;;
48853;SDS011;34673;52.808;17.856;2023-09-19T10:46:03;5.07;;;1.50;;
48853;SDS011;34673;52.808;17.856;2023-09-19T10:48:38;2.90;;;1.40;;
48853;SDS011;34673;52.808;17.856;2023-09-19T10:51:16;6.93;;;1.60;;
48853;SDS011;34673;52.808;17.856;2023-09-19T10:53:52;3.50;;;1.52;;
48853;SDS011;34673;52.808;17.856;2023-09-19T10:59:20;4.03;;;1.58;;
48853;SDS011;34673;52.808;17.856;2023-09-19T11:01:49;5.10;;;1.70;;
48853;SDS011;34673;52.808;17.856;2023-09-19T11:07:06;4.22;;;1.80;;
48853;SDS011;34673;52.808;17.856;2023-09-19T11:09:51;4.65;;;1.90;;
48853;SDS011;34673;52.808;17.856;2023-09-19T11:14:58;5.43;;;1.60;;
48853;SDS011;34673;52.808;17.856;2023-09-19T11:17:35;3.80;;;1.85;;
48853;SDS011;34673;52.808;17.856;2023-09-19T11:30:45;4.47;;;1.60;;
48853;SDS011;34673;52.808;17.856;2023-09-19T11:33:33;2.63;;;1.30;;
48853;SDS011;34673;52.808;17.856;2023-09-19T11:46:27;4.85;;;1.50;;
48853;SDS011;34673;52.808;17.856;2023-09-19T11:48:55;4.13;;;1.25;;
48853;SDS011;34673;52.808;17.856;2023-09-19T11:51:42;4.13;;;1.58;;
48853;SDS011;34673;52.808;17.856;2023-09-19T11:56:45;5.10;;;1.60;;
48853;SDS011;34673;52.808;17.856;2023-09-19T11:59:26;2.45;;;1.27;;
48853;SDS011;34673;52.808;17.856;2023-09-19T12:02:01;5.47;;;1.60;;
48853;SDS011;34673;52.808;17.856;2023-09-19T12:04:41;3.10;;;1.42;;
48853;SDS011;34673;52.808;17.856;2023-09-19T12:07:15;4.03;;;1.30;;
48853;SDS011;34673;52.808;17.856;2023-09-19T12:09:47;4.25;;;1.23;;
48853;SDS011;34673;52.808;17.856;2023-09-19T12:12:20;2.83;;;1.27;;
48853;SDS011;34673;52.808;17.856;2023-09-19T12:14:54;6.63;;;1.75;;
48853;SDS011;34673;52.808;17.856;2023-09-19T12:17:38;4.13;;;1.40;;
48853;SDS011;34673;52.808;17.856;2023-09-19T12:20:08;4.93;;;1.48;;
48853;SDS011;34673;52.808;17.856;2023-09-19T12:22:46;5.22;;;1.58;;
48853;SDS011;34673;52.808;17.856;2023-09-19T12:25:14;4.55;;;1.40;;
48853;SDS011;34673;52.808;17.856;2023-09-19T12:27:44;4.22;;;1.20;;
48853;SDS011;34673;52.808;17.856;2023-09-19T12:30:16;5.70;;;1.40;;
48853;SDS011;34673;52.808;17.856;2023-09-19T12:32:53;6.68;;;1.67;;
48853;SDS011;34673;52.808;17.856;2023-09-19T12:35:32;4.20;;;1.52;;
48853;SDS011;34673;52.808;17.856;2023-09-19T12:38:03;4.15;;;1.40;;
48853;SDS011;34673;52.808;17.856;2023-09-19T12:40:31;5.20;;;1.45;;
48853;SDS011;34673;52.808;17.856;2023-09-19T12:43:01;4.35;;;1.52;;
48853;SDS011;34673;52.808;17.856;2023-09-19T12:45:31;5.18;;;1.40;;
48853;SDS011;34673;52.808;17.856;2023-09-19T12:48:23;3.33;;;1.40;;
48853;SDS011;34673;52.808;17.856;2023-09-19T12:51:02;5.57;;;1.55;;
48853;SDS011;34673;52.808;17.856;2023-09-19T12:53:34;4.65;;;1.45;;
48853;SDS011;34673;52.808;17.856;2023-09-19T12:56:11;5.20;;;1.80;;
48853;SDS011;34673;52.808;17.856;2023-09-19T12:58:55;5.25;;;1.70;;
48853;SDS011;34673;52.808;17.856;2023-09-19T13:01:26;4.95;;;2.20;;
48853;SDS011;34673;52.808;17.856;2023-09-19T13:06:49;6.05;;;1.67;;
48853;SDS011;34673;52.808;17.856;2023-09-19T13:09:21;4.82;;;1.90;;
48853;SDS011;34673;52.808;17.856;2023-09-19T13:11:55;8.35;;;2.80;;
48853;SDS011;34673;52.808;17.856;2023-09-19T13:14:26;4.03;;;2.00;;
48853;SDS011;34673;52.808;17.856;2023-09-19T13:17:04;5.85;;;2.15;;
48853;SDS011;34673;52.808;17.856;2023-09-19T13:19:47;4.43;;;2.07;;
48853;SDS011;34673;52.808;17.856;2023-09-19T13:25:16;4.45;;;2.00;;
48853;SDS011;34673;52.808;17.856;2023-09-19T13:27:51;7.07;;;2.30;;
48853;SDS011;34673;52.808;17.856;2023-09-19T13:30:22;4.95;;;1.77;;
48853;SDS011;34673;52.808;17.856;2023-09-19T13:32:52;5.22;;;1.83;;
48853;SDS011;34673;52.808;17.856;2023-09-19T13:35:32;5.45;;;1.77;;
48853;SDS011;34673;52.808;17.856;2023-09-19T13:37:59;5.80;;;1.85;;
48853;SDS011;34673;52.808;17.856;2023-09-19T13:40:27;3.60;;;1.85;;
48853;SDS011;34673;52.808;17.856;2023-09-19T13:42:57;4.47;;;2.38;;
48853;SDS011;34673;52.808;17.856;2023-09-19T13:45:25;4.82;;;2.22;;
48853;SDS011;34673;52.808;17.856;2023-09-19T13:47:57;5.82;;;2.30;;
48853;SDS011;34673;52.808;17.856;2023-09-19T13:50:28;10.38;;;2.72;;
48853;SDS011;34673;52.808;17.856;2023-09-19T13:52:56;11.55;;;2.88;;
48853;SDS011;34673;52.808;17.856;2023-09-19T13:55:24;4.82;;;2.42;;
48853;SDS011;34673;52.808;17.856;2023-09-19T13:57:52;5.97;;;3.78;;
48853;SDS011;34673;52.808;17.856;2023-09-19T14:00:22;5.53;;;1.90;;
48853;SDS011;34673;52.808;17.856;2023-09-19T14:02:50;5.32;;;3.00;;
48853;SDS011;34673;52.808;17.856;2023-09-19T14:05:18;32.80;;;24.05;;
48853;SDS011;34673;52.808;17.856;2023-09-19T14:07:48;7.68;;;3.40;;
48853;SDS011;34673;52.808;17.856;2023-09-19T14:10:15;31.35;;;20.42;;
48853;SDS011;34673;52.808;17.856;2023-09-19T14:12:44;18.30;;;9.75;;
48853;SDS011;34673;52.808;17.856;2023-09-19T14:15:11;14.95;;;5.85;;
48853;SDS011;34673;52.808;17.856;2023-09-19T14:17:39;21.40;;;6.63;;
48853;SDS011;34673;52.808;17.856;2023-09-19T14:22:37;9.00;;;3.22;;
48853;SDS011;34673;52.808;17.856;2023-09-19T14:25:05;18.92;;;4.93;;
48853;SDS011;34673;52.808;17.856;2023-09-19T14:27:32;6.63;;;2.97;;
48853;SDS011;34673;52.808;17.856;2023-09-19T14:29:59;6.20;;;2.60;;
48853;SDS011;34673;52.808;17.856;2023-09-19T14:32:27;9.68;;;3.75;;
48853;SDS011;34673;52.808;17.856;2023-09-19T14:34:55;11.07;;;3.88;;
48853;SDS011;34673;52.808;17.856;2023-09-19T14:37:22;13.93;;;4.82;;
48853;SDS011;34673;52.808;17.856;2023-09-19T14:39:49;11.35;;;3.30;;
48853;SDS011;34673;52.808;17.856;2023-09-19T14:42:16;5.22;;;2.60;;
48853;SDS011;34673;52.808;17.856;2023-09-19T14:44:44;6.40;;;2.80;;
48853;SDS011;34673;52.808;17.856;2023-09-19T14:47:14;18.38;;;5.63;;
48853;SDS011;34673;52.808;17.856;2023-09-19T14:49:43;9.30;;;3.70;;
48853;SDS011;34673;52.808;17.856;2023-09-19T14:52:11;6.72;;;2.97;;
48853;SDS011;34673;52.808;17.856;2023-09-19T14:54:42;7.20;;;3.10;;
48853;SDS011;34673;52.808;17.856;2023-09-19T14:57:10;10.20;;;3.33;;
48853;SDS011;34673;52.808;17.856;2023-09-19T14:59:37;7.10;;;2.90;;
48853;SDS011;34673;52.808;17.856;2023-09-19T15:02:04;11.20;;;3.47;;
48853;SDS011;34673;52.808;17.856;2023-09-19T15:04:32;9.35;;;3.50;;
48853;SDS011;34673;52.808;17.856;2023-09-19T15:07:00;6.40;;;3.15;;
48853;SDS011;34673;52.808;17.856;2023-09-19T15:09:29;8.48;;;3.30;;
48853;SDS011;34673;52.808;17.856;2023-09-19T15:11:59;6.70;;;3.30;;
48853;SDS011;34673;52.808;17.856;2023-09-19T15:14:26;6.32;;;2.90;;
48853;SDS011;34673;52.808;17.856;2023-09-19T15:16:53;7.05;;;2.90;;
48853;SDS011;34673;52.808;17.856;2023-09-19T15:19:21;7.65;;;3.40;;
48853;SDS011;34673;52.808;17.856;2023-09-19T15:21:49;7.85;;;3.45;;
48853;SDS011;34673;52.808;17.856;2023-09-19T15:24:16;7.40;;;3.13;;
48853;SDS011;34673;52.808;17.856;2023-09-19T15:26:44;8.18;;;3.28;;
48853;SDS011;34673;52.808;17.856;2023-09-19T15:29:12;9.50;;;3.63;;
48853;SDS011;34673;52.808;17.856;2023-09-19T15:31:40;7.18;;;3.45;;
48853;SDS011;34673;52.808;17.856;2023-09-19T15:34:07;8.05;;;3.90;;
48853;SDS011;34673;52.808;17.856;2023-09-19T15:36:37;7.97;;;2.90;;
48853;SDS011;34673;52.808;17.856;2023-09-19T15:39:06;5.53;;;2.78;;
48853;SDS011;34673;52.808;17.856;2023-09-19T15:41:44;7.35;;;3.13;;
48853;SDS011;34673;52.808;17.856;2023-09-19T15:44:14;6.68;;;2.90;;
48853;SDS011;34673;52.808;17.856;2023-09-19T15:46:43;8.02;;;3.50;;
48853;SDS011;34673;52.808;17.856;2023-09-19T15:49:11;6.65;;;3.40;;
48853;SDS011;34673;52.808;17.856;2023-09-19T15:51:39;5.10;;;2.80;;
48853;SDS011;34673;52.808;17.856;2023-09-19T15:54:08;7.18;;;2.90;;
48853;SDS011;34673;52.808;17.856;2023-09-19T15:56:42;6.68;;;3.50;;
48853;SDS011;34673;52.808;17.856;2023-09-19T15:59:10;9.50;;;3.10;;
48853;SDS011;34673;52.808;17.856;2023-09-19T16:01:47;6.60;;;3.25;;
48853;SDS011;34673;52.808;17.856;2023-09-19T16:04:15;6.13;;;3.17;;
48853;SDS011;34673;52.808;17.856;2023-09-19T16:06:43;8.30;;;3.28;;
48853;SDS011;34673;52.808;17.856;2023-09-19T16:09:11;7.20;;;3.15;;
48853;SDS011;34673;52.808;17.856;2023-09-19T16:11:38;6.65;;;3.10;;
48853;SDS011;34673;52.808;17.856;2023-09-19T16:14:05;7.18;;;3.45;;